»·PEaware :: N921VN KCMA-KDLO

N921VN :: KCMA-KDLO

FLIGHT INFORMATION

Flight Status: Arrived
Operator: Privately registered:
United States
More flights under this callsign
Pilot: Kevin M. (7)
Aircraft: BEECH AIRCRAFT BARON
(BE58)
More flights by this aircraft type
Origin: KCMA Camarillo
United States
Destination: KDLO Delano Mun
United States
More flights between these airports :: More routes between these airports
Route:
File this flight plan on PilotEdge
Remarks: Dead reckoning the Alphabet challenge leg 3
Altitude:
(Current/Filed)
9,500ft
Speed:
(Current/Filed)
150kts
Departed: 30-Oct-19 07:28 AM
Arrived: 30-Oct-19 08:13 AM
Distance/Time
Traveled:
92nm/0:44
Distance/Time
To Go:
Arrived

Flight Plot

Page will automatically refresh every two minutes.


Map Options




Map Legend


Flown Route
Filed Route
Departure Airport
Arrival Airport
Navaid (VOR, NDB)
Fix

Horizontal Profiles

Position Reports

Time Latitude Longitude Heading Altitude Ground
Speed
30-Oct-19 07:05 34.210377 -119.082057 0 76ft 0kts
30-Oct-19 07:06 34.210377 -119.082057 0 76ft 0kts
30-Oct-19 07:07 34.210377 -119.082057 0 76ft 0kts
30-Oct-19 07:08 34.210377 -119.082057 0 76ft 0kts
30-Oct-19 07:09 34.210377 -119.082057 0 76ft 0kts
30-Oct-19 07:10 34.211270 -119.083569 266 76ft 19kts
30-Oct-19 07:11 34.211055 -119.089068 278 70ft 3kts
30-Oct-19 07:12 34.211011 -119.091396 283 68ft 1kts
30-Oct-19 07:13 34.210921 -119.095384 318 64ft 9kts
30-Oct-19 07:14 34.210953 -119.097675 244 62ft 0kts
30-Oct-19 07:15 34.212226 -119.102862 282 59ft 19kts
30-Oct-19 07:16 34.212995 -119.104066 354 59ft 0kts
30-Oct-19 07:17 34.212995 -119.104066 355 59ft 0kts
30-Oct-19 07:18 34.212995 -119.104066 355 59ft 0kts
30-Oct-19 07:19 34.212995 -119.104066 355 59ft 0kts
30-Oct-19 07:20 34.212995 -119.104066 355 59ft 0kts
30-Oct-19 07:21 34.212995 -119.104066 355 59ft 0kts
30-Oct-19 07:22 34.212995 -119.104066 355 59ft 0kts
30-Oct-19 07:23 34.212995 -119.104066 355 59ft 0kts
30-Oct-19 07:24 34.212995 -119.104066 355 59ft 0kts
30-Oct-19 07:25 34.212995 -119.104066 355 59ft 0kts
30-Oct-19 07:26 34.213874 -119.103092 90 60ft 32kts
30-Oct-19 07:27 34.218743 -119.076775 38 1622ft 98kts
30-Oct-19 07:28 34.251380 -119.073658 355 2596ft 158kts
30-Oct-19 07:29 34.289538 -119.096104 348 3682ft 158kts
30-Oct-19 07:30 34.324483 -119.102271 314 4547ft 171kts
30-Oct-19 07:31 34.350773 -119.157369 307 4387ft 195kts
30-Oct-19 07:32 34.381822 -119.195153 358 5088ft 180kts
30-Oct-19 07:33 34.370830 -119.164792 178 4200ft 249kts
30-Oct-19 07:34 34.341736 -119.119510 83 3500ft 196kts
30-Oct-19 07:35 34.349927 -119.056878 62 2846ft 185kts
30-Oct-19 07:36 34.363433 -119.008351 77 4013ft 171kts
30-Oct-19 07:37 34.371434 -118.948955 73 3850ft 179kts
30-Oct-19 07:38 34.378729 -118.890650 69 3954ft 176kts
30-Oct-19 07:39 34.390438 -118.833533 60 3986ft 178kts
30-Oct-19 07:40 34.392727 -118.774584 85 4543ft 160kts
30-Oct-19 07:41 34.395484 -118.714099 89 4333ft 184kts
30-Oct-19 07:42 34.409920 -118.658244 45 4731ft 165kts
30-Oct-19 07:43 34.448769 -118.620122 12 4375ft 186kts
30-Oct-19 07:44 34.498697 -118.625749 338 4477ft 182kts
30-Oct-19 07:45 34.541815 -118.659651 338 4534ft 183kts
30-Oct-19 07:46 34.577213 -118.697176 307 5402ft 169kts
30-Oct-19 07:47 34.615742 -118.726430 339 6181ft 161kts
30-Oct-19 07:48 34.656267 -118.754142 340 6661ft 174kts
30-Oct-19 07:49 34.698734 -118.770092 350 7815ft 153kts
30-Oct-19 07:50 34.740075 -118.779820 342 7957ft 198kts
30-Oct-19 07:51 34.787213 -118.808561 324 7967ft 190kts
30-Oct-19 07:52 34.829291 -118.851614 324 7492ft 190kts
30-Oct-19 07:53 34.876542 -118.877201 348 7268ft 187kts
30-Oct-19 07:54 34.925051 -118.911068 335 6174ft 215kts
30-Oct-19 07:55 34.979770 -118.938485 346 5018ft 215kts
30-Oct-19 07:56 35.037796 -118.961329 342 3502ft 238kts
30-Oct-19 07:57 35.095846 -118.982475 3 2874ft 216kts
30-Oct-19 07:58 35.146990 -119.003634 342 3989ft 180kts
30-Oct-19 07:59 35.193951 -119.029095 342 4506ft 197kts
30-Oct-19 08:00 35.246978 -119.046571 352 4503ft 198kts
30-Oct-19 08:01 35.300749 -119.062310 353 4503ft 199kts
30-Oct-19 08:02 35.354526 -119.078000 353 4501ft 199kts
30-Oct-19 08:03 35.407932 -119.096887 349 4500ft 198kts
30-Oct-19 08:04 35.459810 -119.119582 345 4506ft 196kts
30-Oct-19 08:05 35.510491 -119.142410 342 4514ft 193kts
30-Oct-19 08:06 35.559689 -119.167531 339 4492ft 190kts
30-Oct-19 08:07 35.607339 -119.195777 336 4496ft 190kts
30-Oct-19 08:08 35.655752 -119.223403 336 4499ft 192kts
30-Oct-19 08:09 35.713783 -119.244678 346 1812ft 203kts
30-Oct-19 08:10 35.756527 -119.259245 340 1219ft 149kts
30-Oct-19 08:12 35.753908 -119.240512 157 450ft 104kts
30-Oct-19 08:13 35.739785 -119.233730 158 315ft 35kts
30-Oct-19 08:14 35.741005 -119.236041 338 314ft 20kts
30-Oct-19 08:15 35.743941 -119.238092 76 313ft 0kts
30-Oct-19 08:16 35.743941 -119.238092 76 313ft 0kts
30-Oct-19 08:17 35.743941 -119.238092 76 313ft 0kts
30-Oct-19 08:18 35.743941 -119.238092 76 313ft 0kts
30-Oct-19 08:19 35.743941 -119.238092 76 313ft 0kts
30-Oct-19 08:20 35.743941 -119.238092 76 313ft 0kts
30-Oct-19 08:21 35.743941 -119.238092 76 313ft 0kts
30-Oct-19 08:22 35.743941 -119.238092 76 313ft 0kts
30-Oct-19 08:23 35.743941 -119.238092 76 313ft 0kts
30-Oct-19 08:24 35.743941 -119.238092 76 313ft 0kts
30-Oct-19 08:25 35.743941 -119.238092 76 313ft 0kts
30-Oct-19 08:26 35.743941 -119.238092 76 313ft 0kts
30-Oct-19 08:27 35.743941 -119.238092 76 313ft 0kts

Navigation Log

Ident Type
Flight plan parsing failed, navigation log unavailable